createdAt,value
2016-03-27T00:00:25.237Z,0
2016-03-27T00:01:25.332Z,0
2016-03-27T00:02:25.350Z,0
2016-03-27T00:03:25.400Z,0
2016-03-27T00:04:25.450Z,0
2016-03-27T00:05:25.483Z,0
2016-03-27T00:06:25.564Z,0
2016-03-27T00:07:25.614Z,0
2016-03-27T00:08:25.664Z,0
2016-03-27T00:09:25.729Z,0
2016-03-27T00:10:25.763Z,0
2016-03-27T00:11:25.828Z,0
2016-03-27T00:12:25.862Z,0
2016-03-27T00:13:25.943Z,0
2016-03-27T00:14:25.960Z,0
2016-03-27T00:15:26.010Z,0
2016-03-27T00:16:26.559Z,0
2016-03-27T00:17:26.104Z,0
2016-03-27T00:18:26.139Z,0
2016-03-27T00:19:26.189Z,0
2016-03-27T00:20:26.223Z,0
2016-03-27T00:21:26.258Z,0
2016-03-27T00:22:26.327Z,0
2016-03-27T00:23:26.356Z,0
2016-03-27T00:24:26.400Z,0
2016-03-27T00:25:26.460Z,0
2016-03-27T00:26:26.488Z,0
2016-03-27T00:27:26.534Z,0
2016-03-27T00:28:26.581Z,0
2016-03-27T00:29:26.629Z,0
2016-03-27T00:30:26.676Z,0
2016-03-27T00:31:26.770Z,0
2016-03-27T00:32:26.755Z,0
2016-03-27T00:33:26.804Z,0
2016-03-27T00:34:26.884Z,0
2016-03-27T00:35:26.933Z,0
2016-03-27T00:36:26.965Z,0
2016-03-27T00:37:27.030Z,0
2016-03-27T00:38:27.080Z,0
2016-03-27T00:39:27.161Z,0
2016-03-27T00:40:27.179Z,0
2016-03-27T00:41:27.245Z,0
2016-03-27T00:42:27.293Z,0
2016-03-27T00:43:27.329Z,0
2016-03-27T00:44:27.393Z,0
2016-03-27T00:45:27.458Z,0
2016-03-27T00:46:27.633Z,0
2016-03-27T00:47:27.526Z,0
2016-03-27T00:48:27.607Z,0
2016-03-27T00:49:27.641Z,0
2016-03-27T00:50:27.690Z,0
2016-03-27T00:51:27.756Z,0
2016-03-27T00:52:27.790Z,0
2016-03-27T00:53:27.855Z,0
2016-03-27T00:54:27.888Z,0
2016-03-27T00:55:27.954Z,0
2016-03-27T00:56:28.019Z,0
2016-03-27T00:57:28.069Z,0
2016-03-27T00:58:28.103Z,0
2016-03-27T00:59:28.152Z,0
2016-03-27T01:00:28.202Z,0
2016-03-27T01:01:28.345Z,0
2016-03-27T01:02:28.301Z,0
2016-03-27T01:03:28.350Z,0
2016-03-27T01:04:28.416Z,0
2016-03-27T01:05:28.449Z,0
2016-03-27T01:06:28.531Z,0
2016-03-27T01:07:28.643Z,0
2016-03-27T01:08:28.602Z,0
2016-03-27T01:09:28.667Z,0
2016-03-27T01:10:28.748Z,0
2016-03-27T01:11:28.766Z,0
2016-03-27T01:12:28.832Z,0
2016-03-27T01:13:28.866Z,0
2016-03-27T01:14:28.915Z,0
2016-03-27T01:15:28.981Z,0
2016-03-27T01:16:29.108Z,0
2016-03-27T01:17:29.079Z,0
2016-03-27T01:18:29.114Z,0
2016-03-27T01:19:29.179Z,0
2016-03-27T01:20:29.228Z,0
2016-03-27T01:21:29.294Z,0
2016-03-27T01:22:29.374Z,0
2016-03-27T01:23:29.393Z,0
2016-03-27T01:24:29.443Z,0
2016-03-27T01:25:29.476Z,0
2016-03-27T01:26:29.540Z,0
2016-03-27T01:27:29.576Z,0
2016-03-27T01:28:29.640Z,0
2016-03-27T01:29:29.690Z,0
2016-03-27T01:30:29.740Z,0
2016-03-27T01:31:29.789Z,0
2016-03-27T01:32:29.839Z,0
2016-03-27T01:33:29.732Z,0
2016-03-27T01:34:29.937Z,0
2016-03-27T01:35:29.987Z,0
2016-03-27T01:36:30.068Z,0
2016-03-27T01:37:29.945Z,0
2016-03-27T01:38:30.167Z,0
2016-03-27T01:39:30.201Z,0
2016-03-27T01:40:30.251Z,0
2016-03-27T01:41:30.332Z,0
2016-03-27T01:42:30.366Z,0
2016-03-27T01:43:30.399Z,0
2016-03-27T01:44:30.449Z,0
2016-03-27T01:45:30.499Z,0
2016-03-27T01:46:30.548Z,0
2016-03-27T01:47:30.597Z,0
2016-03-27T01:48:30.663Z,0
2016-03-27T01:49:30.713Z,0
2016-03-27T01:50:30.763Z,0
2016-03-27T01:51:30.796Z,0
2016-03-27T01:52:30.877Z,0
2016-03-27T01:53:30.927Z,0
2016-03-27T01:54:30.960Z,0
2016-03-27T01:55:31.041Z,0
2016-03-27T01:56:31.075Z,0
2016-03-27T01:57:31.140Z,0
2016-03-27T01:58:31.174Z,0
2016-03-27T01:59:31.208Z,0
2016-03-27T02:00:31.273Z,0
2016-03-27T02:01:31.338Z,0
2016-03-27T02:02:31.216Z,0
2016-03-27T02:03:31.422Z,0
2016-03-27T02:04:31.472Z,0
2016-03-27T02:05:31.521Z,0
2016-03-27T02:06:31.587Z,0
2016-03-27T02:07:35.948Z,0
2016-03-27T02:08:31.709Z,0
2016-03-27T02:09:31.664Z,0
2016-03-27T02:10:35.662Z,0
2016-03-27T02:11:31.868Z,0
2016-03-27T02:12:31.917Z,0
2016-03-27T02:13:31.952Z,0
2016-03-27T02:14:32.033Z,0
2016-03-27T02:15:32.081Z,0
2016-03-27T02:16:32.100Z,0
2016-03-27T02:17:32.166Z,0
2016-03-27T02:18:32.231Z,0
2016-03-27T02:19:32.281Z,0
2016-03-27T02:20:32.330Z,0
2016-03-27T02:21:32.364Z,0
2016-03-27T02:22:34.226Z,0
2016-03-27T02:23:32.478Z,0
2016-03-27T02:24:32.512Z,0
2016-03-27T02:25:32.562Z,0
2016-03-27T02:26:32.627Z,0
2016-03-27T02:27:32.693Z,0
2016-03-27T02:28:32.742Z,0
2016-03-27T02:29:32.791Z,0
2016-03-27T02:30:32.826Z,0
2016-03-27T02:31:32.875Z,0
2016-03-27T02:32:32.956Z,0
2016-03-27T02:33:32.974Z,0
2016-03-27T02:34:33.039Z,0
2016-03-27T02:35:33.074Z,0
2016-03-27T02:36:33.123Z,0
2016-03-27T02:37:33.188Z,0
2016-03-27T02:38:33.269Z,0
2016-03-27T02:39:33.271Z,0
2016-03-27T02:40:33.196Z,0
2016-03-27T02:41:33.387Z,0
2016-03-27T02:42:33.420Z,0
2016-03-27T02:43:33.486Z,0
2016-03-27T02:44:33.550Z,0
2016-03-27T02:45:33.600Z,0
2016-03-27T02:46:33.650Z,0
2016-03-27T02:47:33.700Z,0
2016-03-27T02:48:33.733Z,0
2016-03-27T02:49:33.798Z,0
2016-03-27T02:50:33.880Z,0
2016-03-27T02:51:33.897Z,0
2016-03-27T02:52:33.963Z,0
2016-03-27T02:53:33.888Z,0
2016-03-27T02:54:34.046Z,0
2016-03-27T02:55:34.096Z,0
2016-03-27T02:56:34.161Z,0
2016-03-27T02:57:34.210Z,0
2016-03-27T02:58:34.245Z,0
2016-03-27T02:59:34.294Z,0
2016-03-27T03:00:34.327Z,0
2016-03-27T03:01:34.425Z,0
2016-03-27T03:02:34.458Z,0
2016-03-27T03:03:34.508Z,0
2016-03-27T03:04:34.574Z,0
2016-03-27T03:05:34.623Z,0
2016-03-27T03:06:34.657Z,0
2016-03-27T03:07:34.754Z,0
2016-03-27T03:08:34.771Z,0
2016-03-27T03:09:34.820Z,0
2016-03-27T03:10:34.871Z,0
2016-03-27T03:11:34.920Z,0
2016-03-27T03:12:34.985Z,0
2016-03-27T03:13:35.035Z,20
2016-03-27T03:14:35.053Z,16
2016-03-27T03:15:35.134Z,16
2016-03-27T03:16:35.184Z,16
2016-03-27T03:17:35.217Z,0
2016-03-27T03:18:35.283Z,0
2016-03-27T03:19:35.348Z,0
2016-03-27T03:20:35.381Z,0
2016-03-27T03:21:35.432Z,0
2016-03-27T03:22:35.528Z,0
2016-03-27T03:23:35.546Z,0
2016-03-27T03:24:35.597Z,0
2016-03-27T03:25:35.630Z,0
2016-03-27T03:26:35.680Z,0
2016-03-27T03:27:35.744Z,0
2016-03-27T03:28:35.778Z,0
2016-03-27T03:29:35.827Z,0
2016-03-27T03:30:35.894Z,0
2016-03-27T03:31:35.927Z,0
2016-03-27T03:32:35.976Z,0
2016-03-27T03:33:36.058Z,0
2016-03-27T03:34:36.107Z,0
2016-03-27T03:35:36.156Z,0
2016-03-27T03:36:36.222Z,0
2016-03-27T03:37:36.256Z,0
2016-03-27T03:38:36.321Z,0
2016-03-27T03:39:36.355Z,0
2016-03-27T03:40:36.404Z,0
2016-03-27T03:41:36.454Z,0
2016-03-27T03:42:36.504Z,0
2016-03-27T03:43:36.537Z,0
2016-03-27T03:44:36.634Z,0
2016-03-27T03:45:36.653Z,0
2016-03-27T03:46:36.686Z,0
2016-03-27T03:47:36.908Z,0
2016-03-27T03:48:36.817Z,0
2016-03-27T03:49:36.850Z,0
2016-03-27T03:50:36.916Z,0
2016-03-27T03:51:36.950Z,0
2016-03-27T03:52:37.030Z,0
2016-03-27T03:53:37.080Z,0
2016-03-27T03:54:37.114Z,0
2016-03-27T03:55:37.179Z,0
2016-03-27T03:56:37.229Z,0
2016-03-27T03:57:37.263Z,0
2016-03-27T03:58:37.344Z,0
2016-03-27T03:59:37.393Z,0
2016-03-27T04:00:37.411Z,0
2016-03-27T04:01:37.477Z,0
2016-03-27T04:02:37.526Z,0
2016-03-27T04:03:37.591Z,0
2016-03-27T04:04:37.657Z,0
2016-03-27T04:05:37.691Z,0
2016-03-27T04:06:37.740Z,0
2016-03-27T04:07:37.776Z,0
2016-03-27T04:08:37.809Z,0
2016-03-27T04:09:37.875Z,0
2016-03-27T04:10:37.940Z,0
2016-03-27T04:11:37.974Z,0
2016-03-27T04:12:38.023Z,0
2016-03-27T04:13:38.105Z,0
2016-03-27T04:14:38.139Z,0
2016-03-27T04:15:38.203Z,0
2016-03-27T04:16:38.222Z,0
2016-03-27T04:17:38.287Z,0
2016-03-27T04:18:38.369Z,0
2016-03-27T04:19:38.402Z,0
2016-03-27T04:20:38.451Z,0
2016-03-27T04:21:38.502Z,0
2016-03-27T04:22:38.535Z,0
2016-03-27T04:23:37.835Z,0
2016-03-27T04:24:38.666Z,0
2016-03-27T04:25:38.699Z,0
2016-03-27T04:26:38.733Z,0
2016-03-27T04:27:38.799Z,0
2016-03-27T04:28:38.848Z,0
2016-03-27T04:29:38.725Z,0
2016-03-27T04:30:38.979Z,0
2016-03-27T04:31:39.043Z,0
2016-03-27T04:32:39.046Z,0
2016-03-27T04:33:39.112Z,0
2016-03-27T04:34:39.192Z,0
2016-03-27T04:35:39.210Z,0
2016-03-27T04:36:39.245Z,0
2016-03-27T04:37:39.326Z,0
2016-03-27T04:38:39.343Z,0
2016-03-27T04:39:39.409Z,0
2016-03-27T04:40:39.489Z,0
2016-03-27T04:41:39.524Z,0
2016-03-27T04:42:39.573Z,0
2016-03-27T04:43:39.622Z,0
2016-03-27T04:44:39.672Z,0
2016-03-27T04:45:39.737Z,0
2016-03-27T04:46:39.803Z,0
2016-03-27T04:47:39.836Z,0
2016-03-27T04:48:39.902Z,0
2016-03-27T04:49:39.967Z,0
2016-03-27T04:50:39.985Z,0
2016-03-27T04:51:40.035Z,0
2016-03-27T04:52:40.085Z,0
2016-03-27T04:53:40.133Z,0
2016-03-27T04:54:40.199Z,0
2016-03-27T04:55:40.233Z,0
2016-03-27T04:56:40.298Z,0
2016-03-27T04:57:40.348Z,0
2016-03-27T04:58:40.397Z,0
2016-03-27T04:59:40.431Z,0
2016-03-27T05:00:40.512Z,0
2016-03-27T05:01:40.546Z,0
2016-03-27T05:02:40.642Z,0
2016-03-27T05:03:40.676Z,0
2016-03-27T05:04:40.695Z,0
2016-03-27T05:05:40.744Z,0
2016-03-27T05:06:40.794Z,0
2016-03-27T05:07:40.875Z,0
2016-03-27T05:08:40.909Z,0
2016-03-27T05:09:40.943Z,0
2016-03-27T05:10:41.008Z,0
2016-03-27T05:11:41.089Z,0
2016-03-27T05:12:41.122Z,0
2016-03-27T05:13:41.172Z,0
2016-03-27T05:14:41.221Z,0
2016-03-27T05:15:41.256Z,0
2016-03-27T05:16:41.305Z,0
2016-03-27T05:17:41.355Z,0
2016-03-27T05:18:41.436Z,0
2016-03-27T05:19:41.485Z,0
2016-03-27T05:20:41.535Z,0
2016-03-27T05:21:41.569Z,0
2016-03-27T05:22:41.618Z,0
2016-03-27T05:23:41.683Z,0
2016-03-27T05:24:41.764Z,0
2016-03-27T05:25:41.782Z,0
2016-03-27T05:26:41.833Z,0
2016-03-27T05:27:41.882Z,0
2016-03-27T05:28:41.931Z,0
2016-03-27T05:29:41.966Z,0
2016-03-27T05:30:42.062Z,0
2016-03-27T05:31:42.095Z,0
2016-03-27T05:32:42.145Z,0
2016-03-27T05:33:42.195Z,0
2016-03-27T05:34:42.244Z,0
2016-03-27T05:35:42.294Z,0
2016-03-27T05:36:42.328Z,0
2016-03-27T05:37:42.376Z,0
2016-03-27T05:38:42.443Z,0
2016-03-27T05:39:42.492Z,0
2016-03-27T05:40:42.541Z,0
2016-03-27T05:41:42.592Z,0
2016-03-27T05:42:42.656Z,0
2016-03-27T05:43:42.706Z,0
2016-03-27T05:44:42.756Z,0
2016-03-27T05:45:42.805Z,0
2016-03-27T05:46:42.870Z,0
2016-03-27T05:47:42.888Z,0
2016-03-27T05:48:42.953Z,0
2016-03-27T05:49:43.019Z,0
2016-03-27T05:50:43.069Z,0
2016-03-27T05:51:43.086Z,0
2016-03-27T05:52:43.168Z,0
2016-03-27T05:53:43.217Z,0
2016-03-27T05:54:43.251Z,0
2016-03-27T05:55:43.316Z,0
2016-03-27T05:56:43.366Z,0
2016-03-27T05:57:43.415Z,0
2016-03-27T05:58:43.480Z,0
2016-03-27T05:59:43.499Z,0
2016-03-27T06:00:43.595Z,0
2016-03-27T06:01:43.646Z,0
2016-03-27T06:02:43.679Z,0
2016-03-27T06:03:43.743Z,0
2016-03-27T06:04:43.779Z,0
2016-03-27T06:05:43.812Z,0
2016-03-27T06:06:43.876Z,0
2016-03-27T06:07:43.943Z,0
2016-03-27T06:08:43.976Z,0
2016-03-27T06:09:44.026Z,0
2016-03-27T06:10:44.091Z,0
2016-03-27T06:11:44.125Z,0
2016-03-27T06:12:44.175Z,0
2016-03-27T06:13:44.256Z,0
2016-03-27T06:14:44.305Z,0
2016-03-27T06:15:44.338Z,0
2016-03-27T06:16:44.420Z,0
2016-03-27T06:17:44.859Z,0
2016-03-27T06:18:44.487Z,0
2016-03-27T06:19:44.537Z,0
2016-03-27T06:20:44.602Z,0
2016-03-27T06:21:44.636Z,0
2016-03-27T06:22:44.702Z,0
2016-03-27T06:23:44.735Z,0
2016-03-27T06:24:44.644Z,0
2016-03-27T06:25:44.850Z,0
2016-03-27T06:26:44.899Z,0
2016-03-27T06:27:44.950Z,0
2016-03-27T06:28:44.999Z,0
2016-03-27T06:29:45.048Z,0
2016-03-27T06:30:45.099Z,0
2016-03-27T06:31:45.179Z,0
2016-03-27T06:32:45.415Z,0
2016-03-27T06:33:45.278Z,0
2016-03-27T06:34:45.327Z,0
2016-03-27T06:35:45.346Z,0
2016-03-27T06:36:45.426Z,0
2016-03-27T06:37:45.460Z,0
2016-03-27T06:38:45.526Z,0
2016-03-27T06:39:45.559Z,0
2016-03-27T06:40:45.625Z,0
2016-03-27T06:41:45.659Z,0
2016-03-27T06:42:45.723Z,0
2016-03-27T06:43:45.774Z,0
2016-03-27T06:44:45.807Z,0
2016-03-27T06:45:45.889Z,0
2016-03-27T06:46:45.922Z,0
2016-03-27T06:47:46.050Z,0
2016-03-27T06:48:46.053Z,0
2016-03-27T06:49:46.087Z,0
2016-03-27T06:50:46.152Z,0
2016-03-27T06:51:46.170Z,0
2016-03-27T06:52:46.203Z,0
2016-03-27T06:53:46.285Z,0
2016-03-27T06:54:46.318Z,0
2016-03-27T06:55:46.369Z,0
2016-03-27T06:56:46.449Z,0
2016-03-27T06:57:46.498Z,0
2016-03-27T06:58:46.517Z,0
2016-03-27T06:59:46.644Z,0
2016-03-27T07:00:46.663Z,0
2016-03-27T07:01:46.697Z,0
2016-03-27T07:02:46.762Z,0
2016-03-27T07:03:46.796Z,0
2016-03-27T07:04:46.908Z,0
2016-03-27T07:05:46.895Z,0
2016-03-27T07:06:46.929Z,0
2016-03-27T07:07:47.010Z,0
2016-03-27T07:08:47.076Z,0
2016-03-27T07:09:47.093Z,0
2016-03-27T07:10:47.158Z,0
2016-03-27T07:11:47.209Z,0
2016-03-27T07:12:47.242Z,0
2016-03-27T07:13:47.291Z,0
2016-03-27T07:14:47.373Z,0
2016-03-27T07:15:47.422Z,0
2016-03-27T07:16:47.472Z,0
2016-03-27T07:17:47.568Z,0
2016-03-27T07:18:47.555Z,0
2016-03-27T07:19:47.620Z,0
2016-03-27T07:20:47.639Z,0
2016-03-27T07:21:47.703Z,0
2016-03-27T07:22:47.019Z,0
2016-03-27T07:23:47.803Z,0
2016-03-27T07:24:47.853Z,0
2016-03-27T07:25:47.949Z,0
2016-03-27T07:26:47.983Z,0
2016-03-27T07:27:48.033Z,0
2016-03-27T07:28:48.067Z,0
2016-03-27T07:29:48.115Z,0
2016-03-27T07:30:48.197Z,0
2016-03-27T07:31:48.215Z,0
2016-03-27T07:32:48.296Z,0
2016-03-27T07:33:48.330Z,0
2016-03-27T07:34:48.395Z,0
2016-03-27T07:35:48.413Z,4
2016-03-27T07:36:48.494Z,4
2016-03-27T07:37:48.543Z,4
2016-03-27T07:38:48.577Z,4
2016-03-27T07:39:48.627Z,4
2016-03-27T07:40:48.692Z,4
2016-03-27T07:41:48.743Z,0
2016-03-27T07:42:48.792Z,0
2016-03-27T07:43:48.840Z,4
2016-03-27T07:44:48.923Z,4
2016-03-27T07:45:48.956Z,4
2016-03-27T07:46:48.989Z,4
2016-03-27T07:47:49.117Z,4
2016-03-27T07:48:49.120Z,0
2016-03-27T07:49:49.139Z,0
2016-03-27T07:50:49.188Z,0
2016-03-27T07:51:49.269Z,0
2016-03-27T07:52:49.303Z,0
2016-03-27T07:53:49.352Z,0
2016-03-27T07:54:49.449Z,0
2016-03-27T07:55:49.467Z,0
2016-03-27T07:56:49.516Z,0
2016-03-27T07:57:49.583Z,0
2016-03-27T07:58:49.475Z,0
2016-03-27T07:59:49.680Z,0
2016-03-27T08:00:49.716Z,0
2016-03-27T08:01:49.764Z,4
2016-03-27T08:02:49.923Z,4
2016-03-27T08:03:49.863Z,4
2016-03-27T08:04:49.929Z,4
2016-03-27T08:05:49.962Z,4
2016-03-27T08:06:50.013Z,0
2016-03-27T08:07:50.062Z,0
2016-03-27T08:08:50.126Z,0
2016-03-27T08:09:50.193Z,0
2016-03-27T08:10:50.226Z,0
2016-03-27T08:11:50.290Z,0
2016-03-27T08:12:50.357Z,0
2016-03-27T08:13:50.375Z,0
2016-03-27T08:14:50.424Z,0
2016-03-27T08:15:50.506Z,4
2016-03-27T08:16:50.523Z,0
2016-03-27T08:17:50.620Z,4
2016-03-27T08:18:50.639Z,4
2016-03-27T08:19:50.687Z,4
2016-03-27T08:20:50.737Z,4
2016-03-27T08:21:50.772Z,4
2016-03-27T08:22:50.087Z,4
2016-03-27T08:23:50.902Z,4
2016-03-27T08:24:50.951Z,0
2016-03-27T08:25:51.000Z,0
2016-03-27T08:26:51.050Z,0
2016-03-27T08:27:51.084Z,0
2016-03-27T08:28:51.133Z,0
2016-03-27T08:29:51.199Z,0
2016-03-27T08:30:51.233Z,0
2016-03-27T08:31:51.299Z,0
2016-03-27T08:32:51.363Z,0
2016-03-27T08:33:51.413Z,4
2016-03-27T08:34:51.478Z,0
2016-03-27T08:35:51.496Z,0
2016-03-27T08:36:51.530Z,0
2016-03-27T08:37:51.611Z,0
2016-03-27T08:38:51.660Z,0
2016-03-27T08:39:51.711Z,0
2016-03-27T08:40:51.791Z,0
2016-03-27T08:41:51.825Z,4
2016-03-27T08:42:51.859Z,4
2016-03-27T08:43:51.924Z,0
2016-03-27T08:44:51.973Z,4
2016-03-27T08:45:52.007Z,4
2016-03-27T08:46:52.073Z,4
2016-03-27T08:47:51.981Z,4
2016-03-27T08:48:52.173Z,8
2016-03-27T08:49:52.237Z,4
2016-03-27T08:50:52.255Z,4
2016-03-27T08:51:52.321Z,4
2016-03-27T08:52:52.401Z,4
2016-03-27T08:53:52.435Z,4
2016-03-27T08:54:52.470Z,4
2016-03-27T08:55:51.784Z,4
2016-03-27T08:56:52.584Z,4
2016-03-27T08:57:52.634Z,4
2016-03-27T08:58:52.652Z,0
2016-03-27T08:59:52.795Z,0
2016-03-27T09:00:52.797Z,4
2016-03-27T09:01:52.816Z,4
2016-03-27T09:02:52.897Z,4
2016-03-27T09:03:52.946Z,0
2016-03-27T09:04:52.981Z,4
2016-03-27T09:05:53.046Z,4
2016-03-27T09:06:53.127Z,0
2016-03-27T09:07:53.158Z,4
2016-03-27T09:08:53.177Z,4
2016-03-27T09:09:53.258Z,4
2016-03-27T09:10:53.307Z,4
2016-03-27T09:11:53.357Z,4
2016-03-27T09:12:53.391Z,0
2016-03-27T09:13:53.441Z,0
2016-03-27T09:14:53.505Z,0
2016-03-27T09:15:53.540Z,0
2016-03-27T09:16:53.589Z,0
2016-03-27T09:17:53.654Z,4
2016-03-27T09:18:53.704Z,4
2016-03-27T09:19:53.738Z,0
2016-03-27T09:20:53.803Z,0
2016-03-27T09:21:53.885Z,4
2016-03-27T09:22:53.918Z,0
2016-03-27T09:23:53.963Z,0
2016-03-27T09:24:54.001Z,4
2016-03-27T09:25:54.053Z,4
2016-03-27T09:26:54.075Z,4
2016-03-27T09:27:54.098Z,4
2016-03-27T09:28:54.139Z,4
2016-03-27T09:29:54.231Z,4
2016-03-27T09:30:54.229Z,0
2016-03-27T09:31:54.290Z,4
2016-03-27T09:32:54.351Z,4
2016-03-27T09:33:54.382Z,4
2016-03-27T09:34:54.445Z,4
2016-03-27T09:35:54.509Z,4
2016-03-27T09:36:54.526Z,4
2016-03-27T09:37:54.590Z,4
2016-03-27T09:38:54.639Z,4
2016-03-27T09:39:54.687Z,4
2016-03-27T09:40:54.721Z,4
2016-03-27T09:41:54.802Z,4
2016-03-27T09:42:54.834Z,4
2016-03-27T09:43:54.867Z,4
2016-03-27T09:44:54.948Z,4
2016-03-27T09:45:55.013Z,4
2016-03-27T09:46:55.047Z,4
2016-03-27T09:47:55.096Z,4
2016-03-27T09:48:55.129Z,4
2016-03-27T09:49:55.210Z,4
2016-03-27T09:50:55.260Z,4
2016-03-27T09:51:55.310Z,8
2016-03-27T09:52:55.203Z,4
2016-03-27T09:53:55.425Z,4
2016-03-27T09:54:55.442Z,8
2016-03-27T09:55:55.509Z,4
2016-03-27T09:56:55.573Z,8
2016-03-27T09:57:55.591Z,8
2016-03-27T09:58:55.501Z,8
2016-03-27T09:59:55.706Z,8
2016-03-27T10:00:55.755Z,8
2016-03-27T10:01:55.822Z,8
2016-03-27T10:02:55.839Z,8
2016-03-27T10:03:55.936Z,8
2016-03-27T10:04:55.986Z,4
2016-03-27T10:05:56.003Z,4
2016-03-27T10:06:56.069Z,8
2016-03-27T10:07:56.134Z,4
2016-03-27T10:08:56.152Z,4
2016-03-27T10:09:56.218Z,4
2016-03-27T10:10:56.267Z,4
2016-03-27T10:11:56.332Z,4
2016-03-27T10:12:56.351Z,4
2016-03-27T10:13:56.432Z,4
2016-03-27T10:14:56.465Z,4
2016-03-27T10:15:56.546Z,4
2016-03-27T10:16:56.580Z,4
2016-03-27T10:17:56.614Z,4
2016-03-27T10:18:56.679Z,4
2016-03-27T10:19:56.745Z,4
2016-03-27T10:20:56.778Z,8
2016-03-27T10:21:56.860Z,4
2016-03-27T10:22:56.878Z,4
2016-03-27T10:23:56.911Z,4
2016-03-27T10:24:56.993Z,4
2016-03-27T10:25:57.026Z,64
2016-03-27T10:26:57.091Z,64
2016-03-27T10:27:57.126Z,68
2016-03-27T10:28:57.175Z,60
2016-03-27T10:29:57.256Z,56
2016-03-27T10:30:57.289Z,60
2016-03-27T10:31:57.339Z,64
2016-03-27T10:32:57.388Z,80
2016-03-27T10:33:57.283Z,80
2016-03-27T10:34:56.738Z,100
2016-03-27T10:35:57.537Z,160
2016-03-27T10:36:57.619Z,188
2016-03-27T10:37:57.636Z,220
2016-03-27T10:38:57.686Z,212
2016-03-27T10:39:57.767Z,168
2016-03-27T10:40:57.832Z,184
2016-03-27T10:41:57.866Z,184
2016-03-27T10:42:57.900Z,168
2016-03-27T10:43:57.965Z,152
2016-03-27T10:44:57.999Z,112
2016-03-27T10:45:58.033Z,92
2016-03-27T10:46:58.114Z,88
2016-03-27T10:47:58.149Z,52
2016-03-27T10:48:58.182Z,76
2016-03-27T10:49:58.246Z,92
2016-03-27T10:50:58.312Z,84
2016-03-27T10:51:58.362Z,100
2016-03-27T10:52:58.411Z,132
2016-03-27T10:53:58.476Z,116
2016-03-27T10:54:58.354Z,120
2016-03-27T10:55:58.560Z,116
2016-03-27T10:56:58.609Z,120
2016-03-27T10:57:58.675Z,160
2016-03-27T10:58:58.725Z,204
2016-03-27T10:59:58.742Z,204
2016-03-27T11:00:58.808Z,232
2016-03-27T11:01:58.858Z,260
2016-03-27T11:02:58.906Z,284
2016-03-27T11:03:58.957Z,268
2016-03-27T11:04:59.037Z,272
2016-03-27T11:05:59.071Z,252
2016-03-27T11:06:59.122Z,268
2016-03-27T11:07:59.186Z,236
2016-03-27T11:08:59.204Z,236
2016-03-27T11:09:59.269Z,232
2016-03-27T11:10:59.319Z,192
2016-03-27T11:11:59.353Z,232
2016-03-27T11:12:59.449Z,176
2016-03-27T11:13:59.468Z,160
2016-03-27T11:14:59.502Z,112
2016-03-27T11:15:59.582Z,176
2016-03-27T11:16:59.632Z,220
2016-03-27T11:17:59.666Z,212
2016-03-27T11:18:59.731Z,200
2016-03-27T11:19:59.782Z,164
2016-03-27T11:20:59.830Z,196
2016-03-27T11:21:59.864Z,184
2016-03-27T11:22:59.961Z,172
2016-03-27T11:23:59.979Z,188
2016-03-27T11:25:00.012Z,176
2016-03-27T11:26:00.093Z,148
2016-03-27T11:27:00.128Z,144
2016-03-27T11:28:00.178Z,192
2016-03-27T11:29:00.258Z,172
2016-03-27T11:30:00.292Z,172
2016-03-27T11:31:00.357Z,188
2016-03-27T11:32:00.375Z,144
2016-03-27T11:33:00.425Z,152
2016-03-27T11:34:00.490Z,180
2016-03-27T11:35:00.540Z,176
2016-03-27T11:36:00.590Z,196
2016-03-27T11:37:00.639Z,196
2016-03-27T11:38:00.704Z,200
2016-03-27T11:39:00.722Z,200
2016-03-27T11:40:00.788Z,212
2016-03-27T11:41:00.853Z,220
2016-03-27T11:42:00.886Z,200
2016-03-27T11:43:00.968Z,192
2016-03-27T11:44:00.986Z,212
2016-03-27T11:45:01.051Z,192
2016-03-27T11:46:01.116Z,172
2016-03-27T11:47:01.135Z,160
2016-03-27T11:48:01.215Z,168
2016-03-27T11:49:01.265Z,208
2016-03-27T11:50:01.315Z,188
2016-03-27T11:51:01.349Z,188
2016-03-27T11:52:01.413Z,160
2016-03-27T11:53:01.448Z,180
2016-03-27T11:54:01.498Z,164
2016-03-27T11:55:01.578Z,176
2016-03-27T11:56:01.596Z,176
2016-03-27T11:57:01.677Z,136
2016-03-27T11:58:01.727Z,156
2016-03-27T11:59:01.761Z,184
2016-03-27T12:00:01.810Z,176
2016-03-27T12:01:01.860Z,148
2016-03-27T12:02:01.894Z,116
2016-03-27T12:03:01.974Z,144
2016-03-27T12:04:02.009Z,160
2016-03-27T12:05:02.042Z,160
2016-03-27T12:06:02.155Z,180
2016-03-27T12:07:02.158Z,152
2016-03-27T12:08:02.222Z,144
2016-03-27T12:09:02.288Z,116
2016-03-27T12:10:01.556Z,116
2016-03-27T12:11:02.387Z,116
2016-03-27T12:12:02.405Z,92
2016-03-27T12:13:02.455Z,108
2016-03-27T12:14:02.535Z,148
2016-03-27T12:15:02.569Z,164
2016-03-27T12:16:02.602Z,168
2016-03-27T12:17:02.700Z,144
2016-03-27T12:18:02.733Z,164
2016-03-27T12:19:02.799Z,140
2016-03-27T12:20:02.817Z,128
2016-03-27T12:21:02.899Z,156
2016-03-27T12:22:02.916Z,132
2016-03-27T12:23:02.981Z,112
2016-03-27T12:24:03.016Z,84
2016-03-27T12:25:03.081Z,80
2016-03-27T12:26:03.129Z,76
2016-03-27T12:27:03.023Z,108
2016-03-27T12:28:03.229Z,128
2016-03-27T12:29:03.310Z,176
2016-03-27T12:30:03.328Z,228
2016-03-27T12:31:03.393Z,248
2016-03-27T12:32:03.443Z,212
2016-03-27T12:33:03.492Z,196
2016-03-27T12:34:03.526Z,148
2016-03-27T12:35:03.592Z,128
2016-03-27T12:36:03.657Z,164
2016-03-27T12:37:03.706Z,168
2016-03-27T12:38:03.741Z,172
2016-03-27T12:39:03.822Z,200
2016-03-27T12:40:03.855Z,204
2016-03-27T12:41:03.889Z,188
2016-03-27T12:42:03.954Z,208
2016-03-27T12:43:04.005Z,244
2016-03-27T12:44:04.038Z,220
2016-03-27T12:45:04.102Z,164
2016-03-27T12:46:04.168Z,148
2016-03-27T12:47:04.202Z,160
2016-03-27T12:48:04.268Z,128
2016-03-27T12:49:04.301Z,116
2016-03-27T12:50:04.367Z,116
2016-03-27T12:51:04.416Z,104
2016-03-27T12:52:04.465Z,100
2016-03-27T12:53:04.532Z,128
2016-03-27T12:54:04.565Z,132
2016-03-27T12:55:04.599Z,148
2016-03-27T12:56:04.679Z,156
2016-03-27T12:57:04.745Z,160
2016-03-27T12:58:04.763Z,160
2016-03-27T12:59:04.843Z,152
2016-03-27T13:00:04.862Z,152
2016-03-27T13:01:04.928Z,188
2016-03-27T13:02:04.976Z,164
2016-03-27T13:03:05.011Z,144
2016-03-27T13:04:05.186Z,144
2016-03-27T13:05:05.126Z,164
2016-03-27T13:06:05.159Z,136
2016-03-27T13:07:05.240Z,152
2016-03-27T13:08:05.289Z,128
2016-03-27T13:09:05.324Z,116
2016-03-27T13:10:05.389Z,116
2016-03-27T13:11:05.455Z,116
2016-03-27T13:12:05.488Z,120
2016-03-27T13:13:05.381Z,164
2016-03-27T13:14:05.603Z,144
2016-03-27T13:15:05.636Z,132
2016-03-27T13:16:04.780Z,120
2016-03-27T13:17:05.752Z,132
2016-03-27T13:18:05.802Z,136
2016-03-27T13:19:06.023Z,136
2016-03-27T13:20:05.885Z,136
2016-03-27T13:21:05.966Z,160
2016-03-27T13:22:05.999Z,140
2016-03-27T13:23:06.048Z,140
2016-03-27T13:24:06.099Z,148
2016-03-27T13:25:06.148Z,148
2016-03-27T13:26:06.182Z,148
2016-03-27T13:27:06.248Z,140
2016-03-27T13:28:06.282Z,148
2016-03-27T13:29:06.378Z,156
2016-03-27T13:30:06.411Z,164
2016-03-27T13:31:06.446Z,188
2016-03-27T13:32:06.511Z,212
2016-03-27T13:33:06.560Z,204
2016-03-27T13:34:06.876Z,184
2016-03-27T13:35:06.644Z,156
2016-03-27T13:36:06.709Z,148
2016-03-27T13:37:06.742Z,176
2016-03-27T13:38:06.808Z,196
2016-03-27T13:39:06.858Z,196
2016-03-27T13:40:06.923Z,196
2016-03-27T13:41:06.972Z,188
2016-03-27T13:42:07.006Z,172
2016-03-27T13:43:07.072Z,168
2016-03-27T13:44:07.121Z,168
2016-03-27T13:45:07.155Z,164
2016-03-27T13:46:07.220Z,168
2016-03-27T13:47:07.285Z,156
2016-03-27T13:48:07.320Z,148
2016-03-27T13:49:07.494Z,116
2016-03-27T13:50:07.434Z,128
2016-03-27T13:51:07.483Z,164
2016-03-27T13:52:07.517Z,164
2016-03-27T13:53:07.568Z,168
2016-03-27T13:54:07.601Z,120
2016-03-27T13:55:07.698Z,120
2016-03-27T13:56:07.732Z,124
2016-03-27T13:57:07.782Z,136
2016-03-27T13:58:07.846Z,132
2016-03-27T13:59:07.926Z,116
2016-03-27T14:00:07.930Z,112
2016-03-27T14:01:07.995Z,112
2016-03-27T14:02:08.045Z,120
2016-03-27T14:03:08.078Z,120
2016-03-27T14:04:08.222Z,160
2016-03-27T14:05:08.178Z,164
2016-03-27T14:06:08.258Z,112
2016-03-27T14:07:08.136Z,100
2016-03-27T14:08:08.326Z,108
2016-03-27T14:09:08.407Z,180
2016-03-27T14:10:09.113Z,176
2016-03-27T14:11:08.506Z,184
2016-03-27T14:12:08.556Z,172
2016-03-27T14:13:08.621Z,164
2016-03-27T14:14:08.639Z,176
2016-03-27T14:15:08.705Z,172
2016-03-27T14:16:08.755Z,172
2016-03-27T14:17:08.819Z,172
2016-03-27T14:18:08.852Z,100
2016-03-27T14:19:09.184Z,176
2016-03-27T14:20:08.952Z,192
2016-03-27T14:21:09.018Z,196
2016-03-27T14:22:09.051Z,192
2016-03-27T14:23:09.102Z,180
2016-03-27T14:24:09.182Z,176
2016-03-27T14:25:09.184Z,176
2016-03-27T14:26:09.266Z,184
2016-03-27T14:27:09.330Z,104
2016-03-27T14:28:09.380Z,104
2016-03-27T14:29:09.414Z,100
2016-03-27T14:30:09.495Z,92